createdAt,value
2023-01-28T00:03:17.695Z,23.05
2023-01-28T00:10:36.022Z,23.55
2023-01-28T00:17:56.364Z,21.90
2023-01-28T00:25:14.943Z,22.88
2023-01-28T00:32:33.581Z,22.45
2023-01-28T00:39:53.245Z,21.50
2023-01-28T00:47:11.466Z,21.30
2023-01-28T00:54:30.244Z,22.45
2023-01-28T01:01:53.039Z,21.67
2023-01-28T01:09:15.554Z,21.00
2023-01-28T01:16:36.450Z,19.83
2023-01-28T01:23:56.063Z,19.25
2023-01-28T01:31:16.035Z,19.67
2023-01-28T01:38:34.352Z,19.42
2023-01-28T01:45:56.609Z,20.08
2023-01-28T01:53:17.779Z,14.90
2023-01-28T02:00:36.167Z,18.63
2023-01-28T02:08:17.588Z,17.65
2023-01-28T02:15:36.125Z,16.65
2023-01-28T02:23:15.864Z,15.90
2023-01-28T02:30:39.348Z,16.48
2023-01-28T02:38:02.017Z,16.20
2023-01-28T02:45:22.872Z,12.43
2023-01-28T02:53:13.423Z,16.38
2023-01-28T03:00:37.939Z,17.58
2023-01-28T03:07:58.080Z,16.52
2023-01-28T03:15:36.390Z,17.10
2023-01-28T03:23:15.298Z,17.60
2023-01-28T03:30:57.297Z,18.58
2023-01-28T03:38:34.239Z,12.53
2023-01-28T03:45:53.025Z,17.95
2023-01-28T03:53:16.821Z,19.65
2023-01-28T04:00:45.421Z,18.60
2023-01-28T04:08:04.582Z,20.15
2023-01-28T04:15:41.556Z,19.05
2023-01-28T04:23:03.155Z,18.52
2023-01-28T04:30:22.086Z,18.27
2023-01-28T04:38:14.826Z,18.60
2023-01-28T04:45:57.835Z,19.83
2023-01-28T05:01:23.755Z,28.85
2023-01-28T05:08:42.485Z,20.73
2023-01-28T05:16:02.466Z,21.13
2023-01-28T05:23:21.183Z,23.90
2023-01-28T05:30:45.985Z,24.88
2023-01-28T05:38:05.657Z,24.38
2023-01-28T05:45:24.068Z,24.92
2023-01-28T05:52:52.377Z,24.90
2023-01-28T06:00:18.447Z,24.35
2023-01-28T06:07:37.564Z,23.27
2023-01-28T06:14:57.949Z,24.17
2023-01-28T06:22:36.041Z,22.90
2023-01-28T06:29:54.315Z,22.02
2023-01-28T06:37:14.211Z,20.95
2023-01-28T06:44:33.951Z,19.52
2023-01-28T06:51:52.752Z,19.73
2023-01-28T06:59:11.178Z,20.83
2023-01-28T07:06:30.958Z,21.35
2023-01-28T07:13:49.178Z,22.83
2023-01-28T07:21:07.567Z,22.65
2023-01-28T07:28:27.179Z,22.17
2023-01-28T07:35:45.439Z,21.40
2023-01-28T07:43:03.727Z,21.75
2023-01-28T07:50:30.682Z,22.80
2023-01-28T07:57:53.696Z,22.92
2023-01-28T08:05:12.048Z,23.27
2023-01-28T08:12:31.868Z,21.52
2023-01-28T08:19:50.060Z,22.58
2023-01-28T08:27:08.597Z,23.48
2023-01-28T08:34:28.151Z,22.83
2023-01-28T08:41:46.980Z,23.67
2023-01-28T08:49:05.415Z,24.30
2023-01-28T08:56:24.954Z,24.27
2023-01-28T09:03:43.262Z,22.05
2023-01-28T09:11:01.832Z,23.88
2023-01-28T09:18:21.531Z,22.10
2023-01-28T09:25:39.936Z,22.38
2023-01-28T09:32:59.579Z,22.58
2023-01-28T09:40:22.500Z,21.92
2023-01-28T09:47:43.676Z,20.80
2023-01-28T09:55:05.851Z,19.00
2023-01-28T10:02:39.084Z,19.55
2023-01-28T10:17:19.262Z,21.05
2023-01-28T10:24:44.462Z,22.45
2023-01-28T10:32:07.645Z,19.27
2023-01-28T10:39:27.113Z,18.00
2023-01-28T10:46:47.261Z,17.52
2023-01-28T10:54:15.599Z,18.55
2023-01-28T11:01:45.489Z,18.25
2023-01-28T11:09:05.781Z,17.75
2023-01-28T11:16:24.056Z,15.55
2023-01-28T11:23:50.996Z,14.60
2023-01-28T11:31:12.343Z,16.90
2023-01-28T11:38:30.629Z,14.57
2023-01-28T11:45:53.775Z,13.45
2023-01-28T11:54:00.515Z,12.77
2023-01-28T12:01:24.149Z,9.70
2023-01-28T12:08:46.211Z,11.10
2023-01-28T12:16:13.465Z,11.75
2023-01-28T12:23:52.804Z,9.45
2023-01-28T12:31:21.177Z,9.43
2023-01-28T12:38:46.231Z,7.68
2023-01-28T12:46:12.657Z,11.65
2023-01-28T12:53:35.138Z,13.50
2023-01-28T13:00:57.809Z,13.20
2023-01-28T13:08:21.331Z,13.57
2023-01-28T13:15:42.180Z,18.67
2023-01-28T13:23:04.316Z,11.32
2023-01-28T13:30:28.695Z,13.75
2023-01-28T13:37:47.368Z,13.00
2023-01-28T13:45:24.666Z,13.93
2023-01-28T13:52:45.883Z,12.77
2023-01-28T14:00:10.114Z,11.60
2023-01-28T14:08:15.489Z,9.73
2023-01-28T14:16:09.532Z,7.38
2023-01-28T14:23:31.417Z,8.45
2023-01-28T14:30:55.765Z,7.53
2023-01-28T14:38:20.159Z,7.45
2023-01-28T14:46:06.915Z,9.15
2023-01-28T14:53:50.215Z,6.55
2023-01-28T15:01:23.143Z,7.47
2023-01-28T15:08:44.252Z,7.65
2023-01-28T15:16:03.782Z,7.22
2023-01-28T15:23:29.717Z,10.52
2023-01-28T15:30:48.733Z,9.05
2023-01-28T15:38:07.982Z,7.75
2023-01-28T15:45:29.977Z,7.10
2023-01-28T15:52:50.750Z,12.52
2023-01-28T16:00:26.671Z,9.93
2023-01-28T16:07:47.861Z,9.57
2023-01-28T16:15:19.671Z,10.18
2023-01-28T16:22:39.944Z,10.30
2023-01-28T16:29:59.622Z,10.50
2023-01-28T16:37:18.345Z,11.82
2023-01-28T16:44:37.047Z,9.38
2023-01-28T16:51:58.079Z,8.70
2023-01-28T16:59:17.684Z,9.02
2023-01-28T17:06:37.412Z,7.70
2023-01-28T17:13:58.388Z,8.88
2023-01-28T17:21:17.100Z,10.73
2023-01-28T17:28:41.948Z,10.45
2023-01-28T17:36:14.248Z,9.55
2023-01-28T17:43:37.858Z,7.78
2023-01-28T17:51:03.962Z,9.63
2023-01-28T17:58:33.062Z,16.42
2023-01-28T18:06:08.120Z,13.63
2023-01-28T18:13:32.170Z,10.20
2023-01-28T18:20:58.458Z,12.80
2023-01-28T18:28:17.057Z,17.48
2023-01-28T18:35:42.802Z,10.95
2023-01-28T18:43:01.060Z,12.35
2023-01-28T18:50:19.601Z,15.10
2023-01-28T18:57:39.322Z,12.48
2023-01-28T19:04:57.617Z,11.85
2023-01-28T19:12:16.048Z,10.73
2023-01-28T19:19:41.359Z,7.40
2023-01-28T19:27:00.202Z,4.70
2023-01-28T19:34:18.634Z,5.93
2023-01-28T19:41:38.527Z,6.80
2023-01-28T19:48:57.002Z,7.63
2023-01-28T19:56:18.666Z,6.35
2023-01-28T20:03:38.878Z,8.23
2023-01-28T20:11:04.363Z,8.35
2023-01-28T20:18:22.684Z,8.32
2023-01-28T20:25:42.512Z,8.02
2023-01-28T20:33:00.762Z,6.90
2023-01-28T20:40:20.279Z,7.07
2023-01-28T20:47:40.309Z,9.75
2023-01-28T20:54:58.826Z,10.25
2023-01-28T21:02:17.241Z,11.80
2023-01-28T21:09:36.812Z,9.18
2023-01-28T21:16:54.982Z,9.02
2023-01-28T21:24:13.583Z,9.38
2023-01-28T21:31:33.403Z,6.65
2023-01-28T21:38:52.991Z,10.30
2023-01-28T21:46:11.186Z,32.50
2023-01-28T21:53:31.163Z,9.50
2023-01-28T22:00:49.441Z,9.98
2023-01-28T22:08:07.678Z,8.88
2023-01-28T22:15:27.695Z,9.00
2023-01-28T22:22:45.839Z,8.65
2023-01-28T22:30:04.141Z,8.18
2023-01-28T22:37:23.877Z,8.75
2023-01-28T22:44:42.153Z,7.78
2023-01-28T22:52:00.402Z,8.52
2023-01-28T22:59:20.005Z,8.15
2023-01-28T23:06:38.600Z,23.35
2023-01-28T23:14:16.576Z,8.65
2023-01-28T23:21:54.722Z,7.38
2023-01-28T23:29:13.151Z,6.63
2023-01-28T23:36:31.914Z,6.90
2023-01-28T23:43:51.994Z,6.05
2023-01-28T23:51:10.269Z,6.00
2023-01-28T23:58:42.744Z,6.13
